sensor_id;sensor_type;location;lat;lon;timestamp;P1;durP1;ratioP1;P2;durP2;ratioP2
18853;SDS011;9556;49.374;19.446;2022-07-25T00:00:00;7.07;;;5.60;;
18853;SDS011;9556;49.374;19.446;2022-07-25T00:02:27;8.73;;;5.50;;
18853;SDS011;9556;49.374;19.446;2022-07-25T00:04:56;7.30;;;5.60;;
18853;SDS011;9556;49.374;19.446;2022-07-25T00:07:23;8.23;;;6.07;;
18853;SDS011;9556;49.374;19.446;2022-07-25T00:09:50;11.53;;;5.67;;
18853;SDS011;9556;49.374;19.446;2022-07-25T00:12:17;6.53;;;5.07;;
18853;SDS011;9556;49.374;19.446;2022-07-25T00:14:44;11.00;;;6.33;;
18853;SDS011;9556;49.374;19.446;2022-07-25T00:17:12;8.73;;;5.70;;
18853;SDS011;9556;49.374;19.446;2022-07-25T00:19:39;9.67;;;5.83;;
18853;SDS011;9556;49.374;19.446;2022-07-25T00:22:07;8.83;;;6.00;;
18853;SDS011;9556;49.374;19.446;2022-07-25T00:24:35;8.17;;;5.83;;
18853;SDS011;9556;49.374;19.446;2022-07-25T00:27:02;12.40;;;5.87;;
18853;SDS011;9556;49.374;19.446;2022-07-25T00:29:29;9.23;;;5.67;;
18853;SDS011;9556;49.374;19.446;2022-07-25T00:31:56;8.37;;;5.57;;
18853;SDS011;9556;49.374;19.446;2022-07-25T00:34:23;9.23;;;5.90;;
18853;SDS011;9556;49.374;19.446;2022-07-25T00:36:50;9.80;;;6.43;;
18853;SDS011;9556;49.374;19.446;2022-07-25T00:39:19;11.30;;;6.47;;
18853;SDS011;9556;49.374;19.446;2022-07-25T00:41:46;9.70;;;6.73;;
18853;SDS011;9556;49.374;19.446;2022-07-25T00:44:20;12.13;;;7.50;;
18853;SDS011;9556;49.374;19.446;2022-07-25T00:46:48;11.27;;;7.50;;
18853;SDS011;9556;49.374;19.446;2022-07-25T00:49:15;10.20;;;6.47;;
18853;SDS011;9556;49.374;19.446;2022-07-25T00:51:42;12.43;;;6.47;;
18853;SDS011;9556;49.374;19.446;2022-07-25T00:54:09;9.87;;;6.50;;
18853;SDS011;9556;49.374;19.446;2022-07-25T00:56:38;8.23;;;6.03;;
18853;SDS011;9556;49.374;19.446;2022-07-25T00:59:05;11.03;;;6.53;;
18853;SDS011;9556;49.374;19.446;2022-07-25T01:01:33;15.07;;;5.90;;
18853;SDS011;9556;49.374;19.446;2022-07-25T01:04:00;13.03;;;6.60;;
18853;SDS011;9556;49.374;19.446;2022-07-25T01:06:27;9.83;;;6.47;;
18853;SDS011;9556;49.374;19.446;2022-07-25T01:08:54;12.43;;;6.57;;
18853;SDS011;9556;49.374;19.446;2022-07-25T01:11:22;12.10;;;6.50;;
18853;SDS011;9556;49.374;19.446;2022-07-25T01:13:51;9.80;;;6.90;;
18853;SDS011;9556;49.374;19.446;2022-07-25T01:16:18;10.63;;;6.87;;
18853;SDS011;9556;49.374;19.446;2022-07-25T01:18:45;12.33;;;6.50;;
18853;SDS011;9556;49.374;19.446;2022-07-25T01:21:13;11.17;;;6.77;;
18853;SDS011;9556;49.374;19.446;2022-07-25T01:23:41;17.23;;;7.30;;
18853;SDS011;9556;49.374;19.446;2022-07-25T01:26:08;17.83;;;7.47;;
18853;SDS011;9556;49.374;19.446;2022-07-25T01:28:35;12.77;;;7.13;;
18853;SDS011;9556;49.374;19.446;2022-07-25T01:31:02;14.10;;;8.07;;
18853;SDS011;9556;49.374;19.446;2022-07-25T01:33:29;11.73;;;8.20;;
18853;SDS011;9556;49.374;19.446;2022-07-25T01:35:57;12.83;;;8.40;;
18853;SDS011;9556;49.374;19.446;2022-07-25T01:38:25;8.30;;;6.77;;
18853;SDS011;9556;49.374;19.446;2022-07-25T01:40:52;13.37;;;6.70;;
18853;SDS011;9556;49.374;19.446;2022-07-25T01:43:19;9.60;;;6.40;;
18853;SDS011;9556;49.374;19.446;2022-07-25T01:45:46;11.27;;;7.00;;
18853;SDS011;9556;49.374;19.446;2022-07-25T01:48:14;10.77;;;6.80;;
18853;SDS011;9556;49.374;19.446;2022-07-25T01:50:41;10.40;;;6.90;;
18853;SDS011;9556;49.374;19.446;2022-07-25T01:53:08;10.23;;;7.30;;
18853;SDS011;9556;49.374;19.446;2022-07-25T01:55:36;12.77;;;7.47;;
18853;SDS011;9556;49.374;19.446;2022-07-25T01:58:03;10.13;;;6.97;;
18853;SDS011;9556;49.374;19.446;2022-07-25T02:00:31;12.17;;;7.23;;
18853;SDS011;9556;49.374;19.446;2022-07-25T02:02:58;12.87;;;7.67;;
18853;SDS011;9556;49.374;19.446;2022-07-25T02:05:43;11.20;;;7.20;;
18853;SDS011;9556;49.374;19.446;2022-07-25T02:08:10;11.97;;;7.40;;
18853;SDS011;9556;49.374;19.446;2022-07-25T02:10:38;11.10;;;7.10;;
18853;SDS011;9556;49.374;19.446;2022-07-25T02:13:06;8.60;;;6.77;;
18853;SDS011;9556;49.374;19.446;2022-07-25T02:15:34;7.70;;;6.20;;
18853;SDS011;9556;49.374;19.446;2022-07-25T02:18:01;10.27;;;6.80;;
18853;SDS011;9556;49.374;19.446;2022-07-25T02:20:28;11.63;;;6.60;;
18853;SDS011;9556;49.374;19.446;2022-07-25T02:22:55;9.87;;;6.13;;
18853;SDS011;9556;49.374;19.446;2022-07-25T02:25:22;8.33;;;6.37;;
18853;SDS011;9556;49.374;19.446;2022-07-25T02:27:51;11.03;;;6.40;;
18853;SDS011;9556;49.374;19.446;2022-07-25T02:30:18;13.07;;;6.20;;
18853;SDS011;9556;49.374;19.446;2022-07-25T02:32:45;9.80;;;6.17;;
18853;SDS011;9556;49.374;19.446;2022-07-25T02:35:12;14.97;;;6.40;;
18853;SDS011;9556;49.374;19.446;2022-07-25T02:37:39;11.40;;;6.80;;
18853;SDS011;9556;49.374;19.446;2022-07-25T02:40:07;11.20;;;7.10;;
18853;SDS011;9556;49.374;19.446;2022-07-25T02:42:34;11.03;;;6.90;;
18853;SDS011;9556;49.374;19.446;2022-07-25T02:45:03;9.07;;;7.00;;
18853;SDS011;9556;49.374;19.446;2022-07-25T02:47:30;9.20;;;6.27;;
18853;SDS011;9556;49.374;19.446;2022-07-25T02:49:57;11.00;;;6.73;;
18853;SDS011;9556;49.374;19.446;2022-07-25T02:52:25;9.97;;;6.40;;
18853;SDS011;9556;49.374;19.446;2022-07-25T02:54:52;8.67;;;6.17;;
18853;SDS011;9556;49.374;19.446;2022-07-25T02:57:19;9.23;;;6.93;;
18853;SDS011;9556;49.374;19.446;2022-07-25T02:59:46;10.93;;;7.13;;
18853;SDS011;9556;49.374;19.446;2022-07-25T03:02:14;12.73;;;6.30;;
18853;SDS011;9556;49.374;19.446;2022-07-25T03:04:41;8.97;;;5.97;;
18853;SDS011;9556;49.374;19.446;2022-07-25T03:07:09;11.73;;;6.70;;
18853;SDS011;9556;49.374;19.446;2022-07-25T03:09:36;20.50;;;7.47;;
18853;SDS011;9556;49.374;19.446;2022-07-25T03:12:03;10.80;;;7.10;;
18853;SDS011;9556;49.374;19.446;2022-07-25T03:14:30;14.10;;;7.87;;
18853;SDS011;9556;49.374;19.446;2022-07-25T03:16:57;11.20;;;7.27;;
18853;SDS011;9556;49.374;19.446;2022-07-25T03:19:26;9.17;;;6.97;;
18853;SDS011;9556;49.374;19.446;2022-07-25T03:21:53;11.27;;;7.20;;
18853;SDS011;9556;49.374;19.446;2022-07-25T03:24:20;11.87;;;6.90;;
18853;SDS011;9556;49.374;19.446;2022-07-25T03:26:47;12.17;;;6.80;;
18853;SDS011;9556;49.374;19.446;2022-07-25T03:29:14;10.17;;;6.60;;
18853;SDS011;9556;49.374;19.446;2022-07-25T03:31:41;9.87;;;6.20;;
18853;SDS011;9556;49.374;19.446;2022-07-25T03:34:08;13.10;;;6.60;;
18853;SDS011;9556;49.374;19.446;2022-07-25T03:36:37;10.27;;;6.70;;
18853;SDS011;9556;49.374;19.446;2022-07-25T03:39:04;14.60;;;6.50;;
18853;SDS011;9556;49.374;19.446;2022-07-25T03:41:31;10.60;;;6.63;;
18853;SDS011;9556;49.374;19.446;2022-07-25T03:43:58;10.23;;;7.73;;
18853;SDS011;9556;49.374;19.446;2022-07-25T03:46:25;8.03;;;6.47;;
18853;SDS011;9556;49.374;19.446;2022-07-25T03:48:52;13.07;;;6.80;;
18853;SDS011;9556;49.374;19.446;2022-07-25T03:51:20;10.20;;;6.63;;
18853;SDS011;9556;49.374;19.446;2022-07-25T03:53:48;10.57;;;6.43;;
18853;SDS011;9556;49.374;19.446;2022-07-25T03:56:28;11.83;;;7.50;;
18853;SDS011;9556;49.374;19.446;2022-07-25T03:58:55;10.93;;;7.43;;
18853;SDS011;9556;49.374;19.446;2022-07-25T04:01:22;11.33;;;7.40;;
18853;SDS011;9556;49.374;19.446;2022-07-25T04:03:49;10.93;;;7.60;;
18853;SDS011;9556;49.374;19.446;2022-07-25T04:06:16;11.90;;;8.50;;
18853;SDS011;9556;49.374;19.446;2022-07-25T04:08:43;13.17;;;8.10;;
18853;SDS011;9556;49.374;19.446;2022-07-25T04:11:12;11.57;;;7.90;;
18853;SDS011;9556;49.374;19.446;2022-07-25T04:13:39;11.50;;;7.60;;
18853;SDS011;9556;49.374;19.446;2022-07-25T04:16:06;12.97;;;6.93;;
18853;SDS011;9556;49.374;19.446;2022-07-25T04:18:34;9.37;;;6.87;;
18853;SDS011;9556;49.374;19.446;2022-07-25T04:21:01;11.60;;;6.60;;
18853;SDS011;9556;49.374;19.446;2022-07-25T04:23:28;10.67;;;6.63;;
18853;SDS011;9556;49.374;19.446;2022-07-25T04:25:55;10.27;;;6.37;;
18853;SDS011;9556;49.374;19.446;2022-07-25T04:28:24;9.10;;;6.17;;
18853;SDS011;9556;49.374;19.446;2022-07-25T04:30:51;14.13;;;6.87;;
18853;SDS011;9556;49.374;19.446;2022-07-25T04:33:18;15.83;;;7.37;;
18853;SDS011;9556;49.374;19.446;2022-07-25T04:35:46;10.67;;;7.03;;
18853;SDS011;9556;49.374;19.446;2022-07-25T04:38:13;15.87;;;9.00;;
18853;SDS011;9556;49.374;19.446;2022-07-25T04:40:40;17.70;;;9.27;;
18853;SDS011;9556;49.374;19.446;2022-07-25T04:43:07;11.93;;;8.00;;
18853;SDS011;9556;49.374;19.446;2022-07-25T04:45:36;12.30;;;9.27;;
18853;SDS011;9556;49.374;19.446;2022-07-25T04:48:03;10.37;;;8.10;;
18853;SDS011;9556;49.374;19.446;2022-07-25T04:50:30;11.40;;;8.63;;
18853;SDS011;9556;49.374;19.446;2022-07-25T04:52:57;10.17;;;7.90;;
18853;SDS011;9556;49.374;19.446;2022-07-25T04:55:24;11.37;;;7.07;;
18853;SDS011;9556;49.374;19.446;2022-07-25T04:57:51;8.57;;;7.00;;
18853;SDS011;9556;49.374;19.446;2022-07-25T05:00:18;16.57;;;9.70;;
18853;SDS011;9556;49.374;19.446;2022-07-25T05:02:49;16.73;;;12.70;;
18853;SDS011;9556;49.374;19.446;2022-07-25T05:05:16;9.87;;;8.13;;
18853;SDS011;9556;49.374;19.446;2022-07-25T05:07:43;9.47;;;7.17;;
18853;SDS011;9556;49.374;19.446;2022-07-25T05:10:11;8.40;;;5.73;;
18853;SDS011;9556;49.374;19.446;2022-07-25T05:12:38;8.50;;;5.67;;
18853;SDS011;9556;49.374;19.446;2022-07-25T05:15:05;11.10;;;5.20;;
18853;SDS011;9556;49.374;19.446;2022-07-25T05:17:33;9.33;;;5.30;;
18853;SDS011;9556;49.374;19.446;2022-07-25T05:20:01;6.20;;;4.80;;
18853;SDS011;9556;49.374;19.446;2022-07-25T05:22:28;7.50;;;4.60;;
18853;SDS011;9556;49.374;19.446;2022-07-25T05:24:55;8.37;;;4.70;;
18853;SDS011;9556;49.374;19.446;2022-07-25T05:27:22;7.77;;;4.97;;
18853;SDS011;9556;49.374;19.446;2022-07-25T05:29:50;7.97;;;5.43;;
18853;SDS011;9556;49.374;19.446;2022-07-25T05:32:17;11.57;;;4.70;;
18853;SDS011;9556;49.374;19.446;2022-07-25T05:34:44;7.50;;;4.07;;
18853;SDS011;9556;49.374;19.446;2022-07-25T05:37:12;6.80;;;4.37;;
18853;SDS011;9556;49.374;19.446;2022-07-25T05:39:40;7.47;;;4.60;;
18853;SDS011;9556;49.374;19.446;2022-07-25T05:42:07;9.23;;;4.63;;
18853;SDS011;9556;49.374;19.446;2022-07-25T05:44:34;6.97;;;4.27;;
18853;SDS011;9556;49.374;19.446;2022-07-25T05:47:01;5.67;;;3.77;;
18853;SDS011;9556;49.374;19.446;2022-07-25T05:49:28;6.07;;;4.30;;
18853;SDS011;9556;49.374;19.446;2022-07-25T05:51:55;5.87;;;4.20;;
18853;SDS011;9556;49.374;19.446;2022-07-25T05:54:24;9.90;;;4.20;;
18853;SDS011;9556;49.374;19.446;2022-07-25T05:56:51;4.70;;;3.60;;
18853;SDS011;9556;49.374;19.446;2022-07-25T05:59:18;6.67;;;4.03;;
18853;SDS011;9556;49.374;19.446;2022-07-25T06:01:45;6.17;;;4.20;;
18853;SDS011;9556;49.374;19.446;2022-07-25T06:04:13;6.50;;;4.13;;
18853;SDS011;9556;49.374;19.446;2022-07-25T06:06:40;6.03;;;4.10;;
18853;SDS011;9556;49.374;19.446;2022-07-25T06:09:07;5.03;;;3.60;;
18853;SDS011;9556;49.374;19.446;2022-07-25T06:11:35;7.73;;;4.00;;
18853;SDS011;9556;49.374;19.446;2022-07-25T06:14:02;9.27;;;3.67;;
18853;SDS011;9556;49.374;19.446;2022-07-25T06:16:29;4.87;;;3.40;;
18853;SDS011;9556;49.374;19.446;2022-07-25T06:18:57;5.10;;;3.50;;
18853;SDS011;9556;49.374;19.446;2022-07-25T06:21:24;8.47;;;3.30;;
18853;SDS011;9556;49.374;19.446;2022-07-25T06:23:51;4.90;;;3.53;;
18853;SDS011;9556;49.374;19.446;2022-07-25T06:26:19;6.87;;;3.93;;
18853;SDS011;9556;49.374;19.446;2022-07-25T06:28:47;6.60;;;3.40;;
18853;SDS011;9556;49.374;19.446;2022-07-25T06:31:14;9.40;;;3.87;;
18853;SDS011;9556;49.374;19.446;2022-07-25T06:33:41;6.03;;;3.87;;
18853;SDS011;9556;49.374;19.446;2022-07-25T06:36:08;14.13;;;3.73;;
18853;SDS011;9556;49.374;19.446;2022-07-25T06:38:36;5.07;;;3.90;;
18853;SDS011;9556;49.374;19.446;2022-07-25T06:41:03;6.30;;;3.17;;
18853;SDS011;9556;49.374;19.446;2022-07-25T06:43:30;6.77;;;3.70;;
18853;SDS011;9556;49.374;19.446;2022-07-25T06:45:58;4.87;;;3.70;;
18853;SDS011;9556;49.374;19.446;2022-07-25T06:48:26;10.20;;;3.50;;
18853;SDS011;9556;49.374;19.446;2022-07-25T06:50:54;4.77;;;3.77;;
18853;SDS011;9556;49.374;19.446;2022-07-25T06:53:21;5.70;;;3.67;;
18853;SDS011;9556;49.374;19.446;2022-07-25T06:55:48;5.30;;;3.47;;
18853;SDS011;9556;49.374;19.446;2022-07-25T06:58:15;6.37;;;3.47;;
18853;SDS011;9556;49.374;19.446;2022-07-25T07:00:42;6.27;;;3.50;;
18853;SDS011;9556;49.374;19.446;2022-07-25T07:03:11;8.10;;;3.67;;
18853;SDS011;9556;49.374;19.446;2022-07-25T07:05:38;6.70;;;3.40;;
18853;SDS011;9556;49.374;19.446;2022-07-25T07:08:06;7.63;;;3.20;;
18853;SDS011;9556;49.374;19.446;2022-07-25T07:10:33;5.87;;;3.33;;
18853;SDS011;9556;49.374;19.446;2022-07-25T07:13:04;8.50;;;3.73;;
18853;SDS011;9556;49.374;19.446;2022-07-25T07:15:32;6.87;;;3.33;;
18853;SDS011;9556;49.374;19.446;2022-07-25T07:18:01;5.73;;;3.43;;
18853;SDS011;9556;49.374;19.446;2022-07-25T07:20:30;4.80;;;3.33;;
18853;SDS011;9556;49.374;19.446;2022-07-25T07:22:57;4.27;;;3.30;;
18853;SDS011;9556;49.374;19.446;2022-07-25T07:25:24;5.47;;;3.70;;
18853;SDS011;9556;49.374;19.446;2022-07-25T07:27:51;5.13;;;3.47;;
18853;SDS011;9556;49.374;19.446;2022-07-25T07:30:18;5.53;;;3.17;;
18853;SDS011;9556;49.374;19.446;2022-07-25T07:32:46;5.40;;;3.50;;
18853;SDS011;9556;49.374;19.446;2022-07-25T07:35:13;6.90;;;3.47;;
18853;SDS011;9556;49.374;19.446;2022-07-25T07:37:44;5.37;;;3.43;;
18853;SDS011;9556;49.374;19.446;2022-07-25T07:40:12;5.97;;;3.37;;
18853;SDS011;9556;49.374;19.446;2022-07-25T07:42:39;6.77;;;3.63;;
18853;SDS011;9556;49.374;19.446;2022-07-25T07:45:10;5.10;;;3.13;;
18853;SDS011;9556;49.374;19.446;2022-07-25T07:47:37;9.93;;;3.03;;
18853;SDS011;9556;49.374;19.446;2022-07-25T07:50:05;6.13;;;2.80;;
18853;SDS011;9556;49.374;19.446;2022-07-25T07:52:32;3.50;;;2.50;;
18853;SDS011;9556;49.374;19.446;2022-07-25T07:55:02;8.17;;;2.60;;
18853;SDS011;9556;49.374;19.446;2022-07-25T07:57:47;4.10;;;2.43;;
18853;SDS011;9556;49.374;19.446;2022-07-25T08:00:15;4.03;;;2.97;;
18853;SDS011;9556;49.374;19.446;2022-07-25T08:02:43;8.67;;;3.20;;
18853;SDS011;9556;49.374;19.446;2022-07-25T08:05:10;4.03;;;2.73;;
18853;SDS011;9556;49.374;19.446;2022-07-25T08:07:37;4.67;;;2.63;;
18853;SDS011;9556;49.374;19.446;2022-07-25T08:10:06;4.67;;;2.50;;
18853;SDS011;9556;49.374;19.446;2022-07-25T08:12:38;4.67;;;2.60;;
18853;SDS011;9556;49.374;19.446;2022-07-25T08:15:05;3.80;;;2.60;;
18853;SDS011;9556;49.374;19.446;2022-07-25T08:17:33;4.93;;;2.73;;
18853;SDS011;9556;49.374;19.446;2022-07-25T08:20:00;3.97;;;2.53;;
18853;SDS011;9556;49.374;19.446;2022-07-25T08:22:35;3.87;;;2.63;;
18853;SDS011;9556;49.374;19.446;2022-07-25T08:25:02;3.80;;;2.30;;
18853;SDS011;9556;49.374;19.446;2022-07-25T08:27:31;5.10;;;2.40;;
18853;SDS011;9556;49.374;19.446;2022-07-25T08:29:58;4.30;;;2.50;;
18853;SDS011;9556;49.374;19.446;2022-07-25T08:32:26;4.43;;;2.50;;
18853;SDS011;9556;49.374;19.446;2022-07-25T08:34:53;4.60;;;2.40;;
18853;SDS011;9556;49.374;19.446;2022-07-25T08:37:21;4.13;;;2.40;;
18853;SDS011;9556;49.374;19.446;2022-07-25T08:39:48;5.57;;;2.50;;
18853;SDS011;9556;49.374;19.446;2022-07-25T08:42:16;3.30;;;2.07;;
18853;SDS011;9556;49.374;19.446;2022-07-25T08:44:48;7.27;;;1.77;;
18853;SDS011;9556;49.374;19.446;2022-07-25T08:47:15;2.10;;;1.77;;
18853;SDS011;9556;49.374;19.446;2022-07-25T08:49:43;2.17;;;1.50;;
18853;SDS011;9556;49.374;19.446;2022-07-25T08:52:11;2.87;;;1.90;;
18853;SDS011;9556;49.374;19.446;2022-07-25T08:54:39;3.13;;;1.90;;
18853;SDS011;9556;49.374;19.446;2022-07-25T08:57:06;4.38;;;2.28;;
18853;SDS011;9556;49.374;19.446;2022-07-25T08:59:34;4.50;;;1.90;;
18853;SDS011;9556;49.374;19.446;2022-07-25T09:02:02;4.15;;;1.58;;
18853;SDS011;9556;49.374;19.446;2022-07-25T09:04:32;2.42;;;1.02;;
18853;SDS011;9556;49.374;19.446;2022-07-25T09:07:00;1.00;;;0.90;;
18853;SDS011;9556;49.374;19.446;2022-07-25T09:09:29;1.45;;;1.15;;
18853;SDS011;9556;49.374;19.446;2022-07-25T09:11:56;2.13;;;1.00;;
18853;SDS011;9556;49.374;19.446;2022-07-25T09:14:23;1.58;;;1.20;;
18853;SDS011;9556;49.374;19.446;2022-07-25T09:16:51;1.08;;;0.70;;
18853;SDS011;9556;49.374;19.446;2022-07-25T09:19:20;0.90;;;0.77;;
18853;SDS011;9556;49.374;19.446;2022-07-25T09:21:58;1.70;;;0.60;;
18853;SDS011;9556;49.374;19.446;2022-07-25T09:24:25;1.00;;;0.90;;
18853;SDS011;9556;49.374;19.446;2022-07-25T09:26:53;1.10;;;0.82;;
18853;SDS011;9556;49.374;19.446;2022-07-25T09:29:21;1.27;;;1.00;;
18853;SDS011;9556;49.374;19.446;2022-07-25T09:31:48;2.33;;;0.80;;
18853;SDS011;9556;49.374;19.446;2022-07-25T09:34:16;1.40;;;1.02;;
18853;SDS011;9556;49.374;19.446;2022-07-25T09:36:52;2.10;;;1.15;;
18853;SDS011;9556;49.374;19.446;2022-07-25T09:39:19;1.70;;;1.27;;
18853;SDS011;9556;49.374;19.446;2022-07-25T09:41:47;2.25;;;1.45;;
18853;SDS011;9556;49.374;19.446;2022-07-25T09:44:15;4.47;;;1.45;;
18853;SDS011;9556;49.374;19.446;2022-07-25T09:46:42;5.80;;;1.30;;
18853;SDS011;9556;49.374;19.446;2022-07-25T09:49:09;3.60;;;1.30;;
18853;SDS011;9556;49.374;19.446;2022-07-25T09:51:38;2.03;;;1.50;;
18853;SDS011;9556;49.374;19.446;2022-07-25T09:54:07;2.10;;;1.33;;
18853;SDS011;9556;49.374;19.446;2022-07-25T09:56:34;2.95;;;1.35;;
18853;SDS011;9556;49.374;19.446;2022-07-25T09:59:01;2.25;;;1.35;;
18853;SDS011;9556;49.374;19.446;2022-07-25T10:01:32;3.00;;;1.40;;
18853;SDS011;9556;49.374;19.446;2022-07-25T10:04:03;3.13;;;1.52;;
18853;SDS011;9556;49.374;19.446;2022-07-25T10:06:36;2.85;;;1.30;;
18853;SDS011;9556;49.374;19.446;2022-07-25T10:09:10;1.63;;;1.45;;
18853;SDS011;9556;49.374;19.446;2022-07-25T10:11:37;3.45;;;1.40;;
18853;SDS011;9556;49.374;19.446;2022-07-25T10:14:08;2.55;;;1.30;;
18853;SDS011;9556;49.374;19.446;2022-07-25T10:16:43;1.95;;;1.33;;
18853;SDS011;9556;49.374;19.446;2022-07-25T10:19:11;1.52;;;1.33;;
18853;SDS011;9556;49.374;19.446;2022-07-25T10:21:38;2.60;;;1.40;;
18853;SDS011;9556;49.374;19.446;2022-07-25T10:24:07;1.55;;;1.13;;
18853;SDS011;9556;49.374;19.446;2022-07-25T10:26:36;1.50;;;1.20;;
18853;SDS011;9556;49.374;19.446;2022-07-25T10:29:06;4.95;;;1.30;;
18853;SDS011;9556;49.374;19.446;2022-07-25T10:31:34;2.33;;;1.30;;
18853;SDS011;9556;49.374;19.446;2022-07-25T10:34:03;1.40;;;1.10;;
18853;SDS011;9556;49.374;19.446;2022-07-25T10:36:39;2.30;;;1.48;;
18853;SDS011;9556;49.374;19.446;2022-07-25T10:39:07;2.80;;;1.40;;
18853;SDS011;9556;49.374;19.446;2022-07-25T10:41:37;2.20;;;1.33;;
18853;SDS011;9556;49.374;19.446;2022-07-25T10:44:09;4.22;;;1.20;;
18853;SDS011;9556;49.374;19.446;2022-07-25T10:46:37;2.72;;;1.40;;
18853;SDS011;9556;49.374;19.446;2022-07-25T10:49:05;3.22;;;1.63;;
18853;SDS011;9556;49.374;19.446;2022-07-25T10:51:32;1.83;;;1.33;;
18853;SDS011;9556;49.374;19.446;2022-07-25T10:54:10;2.00;;;1.50;;
18853;SDS011;9556;49.374;19.446;2022-07-25T10:56:48;2.10;;;1.45;;
18853;SDS011;9556;49.374;19.446;2022-07-25T10:59:23;1.52;;;1.30;;
18853;SDS011;9556;49.374;19.446;2022-07-25T11:01:51;1.40;;;1.30;;
18853;SDS011;9556;49.374;19.446;2022-07-25T11:04:19;2.40;;;1.40;;
18853;SDS011;9556;49.374;19.446;2022-07-25T11:06:46;2.83;;;1.35;;
18853;SDS011;9556;49.374;19.446;2022-07-25T11:09:13;1.75;;;1.40;;
18853;SDS011;9556;49.374;19.446;2022-07-25T11:11:43;3.17;;;1.52;;
18853;SDS011;9556;49.374;19.446;2022-07-25T11:14:13;1.40;;;1.30;;
18853;SDS011;9556;49.374;19.446;2022-07-25T11:16:41;1.92;;;1.40;;
18853;SDS011;9556;49.374;19.446;2022-07-25T11:19:18;1.70;;;1.40;;
18853;SDS011;9556;49.374;19.446;2022-07-25T11:21:45;1.58;;;1.35;;
18853;SDS011;9556;49.374;19.446;2022-07-25T11:24:13;4.95;;;1.50;;
18853;SDS011;9556;49.374;19.446;2022-07-25T11:26:45;2.00;;;1.50;;
18853;SDS011;9556;49.374;19.446;2022-07-25T11:29:19;6.10;;;1.85;;
18853;SDS011;9556;49.374;19.446;2022-07-25T11:31:51;1.65;;;1.30;;
18853;SDS011;9556;49.374;19.446;2022-07-25T11:34:20;1.65;;;1.40;;
18853;SDS011;9556;49.374;19.446;2022-07-25T11:36:48;1.65;;;1.42;;
18853;SDS011;9556;49.374;19.446;2022-07-25T11:39:15;4.18;;;1.58;;
18853;SDS011;9556;49.374;19.446;2022-07-25T11:41:43;1.95;;;1.50;;
18853;SDS011;9556;49.374;19.446;2022-07-25T11:44:11;2.33;;;1.80;;
18853;SDS011;9556;49.374;19.446;2022-07-25T11:46:41;1.88;;;1.40;;
18853;SDS011;9556;49.374;19.446;2022-07-25T11:49:09;1.95;;;1.50;;
18853;SDS011;9556;49.374;19.446;2022-07-25T11:51:36;2.15;;;1.70;;
18853;SDS011;9556;49.374;19.446;2022-07-25T11:54:07;1.98;;;1.55;;
18853;SDS011;9556;49.374;19.446;2022-07-25T11:56:36;2.20;;;1.83;;
18853;SDS011;9556;49.374;19.446;2022-07-25T11:59:03;5.28;;;1.70;;
18853;SDS011;9556;49.374;19.446;2022-07-25T12:01:35;3.20;;;1.85;;
18853;SDS011;9556;49.374;19.446;2022-07-25T12:04:09;2.28;;;1.70;;
18853;SDS011;9556;49.374;19.446;2022-07-25T12:06:36;2.60;;;1.85;;
18853;SDS011;9556;49.374;19.446;2022-07-25T12:09:10;1.98;;;1.77;;
18853;SDS011;9556;49.374;19.446;2022-07-25T12:11:38;5.40;;;1.90;;
18853;SDS011;9556;49.374;19.446;2022-07-25T12:14:05;3.60;;;1.60;;
18853;SDS011;9556;49.374;19.446;2022-07-25T12:16:33;2.38;;;1.60;;
18853;SDS011;9556;49.374;19.446;2022-07-25T12:19:02;1.83;;;1.60;;
18853;SDS011;9556;49.374;19.446;2022-07-25T12:21:30;2.08;;;1.60;;
18853;SDS011;9556;49.374;19.446;2022-07-25T12:23:57;2.65;;;1.70;;
18853;SDS011;9556;49.374;19.446;2022-07-25T12:26:24;3.22;;;1.60;;
18853;SDS011;9556;49.374;19.446;2022-07-25T12:28:51;6.78;;;1.80;;
18853;SDS011;9556;49.374;19.446;2022-07-25T12:31:18;2.50;;;1.65;;
18853;SDS011;9556;49.374;19.446;2022-07-25T12:33:46;2.63;;;1.73;;
18853;SDS011;9556;49.374;19.446;2022-07-25T12:36:14;3.88;;;1.70;;
18853;SDS011;9556;49.374;19.446;2022-07-25T12:38:42;1.90;;;1.58;;
18853;SDS011;9556;49.374;19.446;2022-07-25T12:41:09;2.05;;;1.20;;
18853;SDS011;9556;49.374;19.446;2022-07-25T12:43:36;2.58;;;1.35;;
18853;SDS011;9556;49.374;19.446;2022-07-25T12:46:04;2.65;;;1.20;;
18853;SDS011;9556;49.374;19.446;2022-07-25T12:48:31;1.55;;;1.17;;
18853;SDS011;9556;49.374;19.446;2022-07-25T12:50:58;1.75;;;1.30;;
18853;SDS011;9556;49.374;19.446;2022-07-25T12:53:27;1.83;;;1.17;;
18853;SDS011;9556;49.374;19.446;2022-07-25T12:55:54;0.90;;;0.90;;
18853;SDS011;9556;49.374;19.446;2022-07-25T12:58:21;1.75;;;1.15;;
18853;SDS011;9556;49.374;19.446;2022-07-25T13:00:48;7.10;;;1.20;;
18853;SDS011;9556;49.374;19.446;2022-07-25T13:03:15;2.00;;;1.00;;
18853;SDS011;9556;49.374;19.446;2022-07-25T13:05:42;2.75;;;1.10;;
18853;SDS011;9556;49.374;19.446;2022-07-25T13:08:10;2.35;;;1.10;;
18853;SDS011;9556;49.374;19.446;2022-07-25T13:10:38;1.67;;;0.90;;
18853;SDS011;9556;49.374;19.446;2022-07-25T13:13:05;3.80;;;1.10;;
18853;SDS011;9556;49.374;19.446;2022-07-25T13:15:33;1.70;;;0.90;;
18853;SDS011;9556;49.374;19.446;2022-07-25T13:18:01;1.05;;;0.95;;
18853;SDS011;9556;49.374;19.446;2022-07-25T13:20:28;2.85;;;0.85;;
18853;SDS011;9556;49.374;19.446;2022-07-25T13:22:55;1.00;;;0.90;;
18853;SDS011;9556;49.374;19.446;2022-07-25T13:25:23;1.35;;;0.82;;
18853;SDS011;9556;49.374;19.446;2022-07-25T13:27:51;2.17;;;0.80;;
18853;SDS011;9556;49.374;19.446;2022-07-25T13:30:18;1.48;;;0.90;;
18853;SDS011;9556;49.374;19.446;2022-07-25T13:32:45;1.00;;;0.80;;
18853;SDS011;9556;49.374;19.446;2022-07-25T13:35:12;2.40;;;0.90;;
18853;SDS011;9556;49.374;19.446;2022-07-25T13:37:40;2.58;;;0.80;;
18853;SDS011;9556;49.374;19.446;2022-07-25T13:40:07;1.95;;;0.80;;
18853;SDS011;9556;49.374;19.446;2022-07-25T13:42:34;2.08;;;0.90;;
18853;SDS011;9556;49.374;19.446;2022-07-25T13:45:03;0.93;;;0.80;;
18853;SDS011;9556;49.374;19.446;2022-07-25T13:47:31;2.05;;;0.80;;
18853;SDS011;9556;49.374;19.446;2022-07-25T13:49:59;0.80;;;0.73;;
18853;SDS011;9556;49.374;19.446;2022-07-25T13:52:26;1.25;;;0.80;;
18853;SDS011;9556;49.374;19.446;2022-07-25T13:54:54;0.90;;;0.80;;
18853;SDS011;9556;49.374;19.446;2022-07-25T13:57:21;1.98;;;0.93;;
18853;SDS011;9556;49.374;19.446;2022-07-25T13:59:48;2.22;;;0.80;;
18853;SDS011;9556;49.374;19.446;2022-07-25T14:02:16;3.10;;;0.98;;
18853;SDS011;9556;49.374;19.446;2022-07-25T14:04:43;1.33;;;0.90;;
18853;SDS011;9556;49.374;19.446;2022-07-25T14:07:11;0.95;;;0.85;;
18853;SDS011;9556;49.374;19.446;2022-07-25T14:09:39;0.95;;;0.82;;
18853;SDS011;9556;49.374;19.446;2022-07-25T14:12:06;1.60;;;0.90;;
18853;SDS011;9556;49.374;19.446;2022-07-25T14:14:33;1.85;;;0.85;;
18853;SDS011;9556;49.374;19.446;2022-07-25T14:17:00;1.80;;;0.80;;
18853;SDS011;9556;49.374;19.446;2022-07-25T14:19:29;2.20;;;0.85;;
18853;SDS011;9556;49.374;19.446;2022-07-25T14:21:56;1.50;;;0.80;;
18853;SDS011;9556;49.374;19.446;2022-07-25T14:24:23;3.08;;;0.90;;
18853;SDS011;9556;49.374;19.446;2022-07-25T14:26:50;1.90;;;0.82;;
18853;SDS011;9556;49.374;19.446;2022-07-25T14:29:19;1.10;;;0.75;;
18853;SDS011;9556;49.374;19.446;2022-07-25T14:31:46;1.40;;;0.90;;
18853;SDS011;9556;49.374;19.446;2022-07-25T14:34:13;0.98;;;0.90;;
18853;SDS011;9556;49.374;19.446;2022-07-25T14:36:42;3.80;;;0.98;;
18853;SDS011;9556;49.374;19.446;2022-07-25T14:39:11;1.10;;;0.90;;
18853;SDS011;9556;49.374;19.446;2022-07-25T14:41:38;1.40;;;0.98;;
18853;SDS011;9556;49.374;19.446;2022-07-25T14:44:06;0.80;;;0.80;;
18853;SDS011;9556;49.374;19.446;2022-07-25T14:46:33;1.08;;;0.90;;